map of XMS home
XMS - Airport
Location
City:  Macas, Morona-Santiago, Ecuador
Name:Coronel Edmundo Carvajal
ICAO:SEMC
IATA:XMS

Details
Type:Airport (Aerodrome, Airfield)
Latitude:217'57"S (-2.299166)
Longitude:7807'15"W (-78.120749)
Datum:WGS 1984
Elevation:3452 ft (1052 m)
Variation:3.48W (WMM2015 magnetic declination)
-0.16 annual change
Runways:1
Longest:8202 × 98 ft (2500 × 30 m), paved

Time
Time Zone:UTC-5
Local Time:

Weather
METAR:SEMC 201500Z 04004KT 9999 FEW030 SCT100 24/20 Q1016 RMK A3002

Related Locations
Nearby:
Farthest:KUL: 12439 mi / 20018 km
Kuala Lumpur (Sepang) [Intl], 10, MY

Find:

   beyond  
but within

Other Information
Maps:
NOTAMs:
Links:
Sources:

  
  • flag of Ecuador
  • flag of Morona-Santiago
  

Sectional Chart

Flight Planning
at skyvector.com

Satellite Image

Google Maps Satellite view

 

Copyright © 2004-2018 Karl L. Swartz. All rights reserved.
The Great Circle Mapper name and logo are trademarks of the Great Circle Mapper.
All other trademarks mentioned herein belong to their respective owners.
Please see credits for attibutions and further copyright information.

  Follow gcmap on Facebook Follow gcmap on Twitter Follow gcmap on Google+ GCmap on LinkedIn

hCard Microformat

Geo Microformat